sensor_id;sensor_type;location;lat;lon;timestamp;temperature;humidity
11812;DHT22;5963;50.184;9.162;2023-08-06T00:01:50;14.90;99.90
11812;DHT22;5963;50.184;9.162;2023-08-06T00:04:22;14.90;99.90
11812;DHT22;5963;50.184;9.162;2023-08-06T00:06:53;15.00;99.90
11812;DHT22;5963;50.184;9.162;2023-08-06T00:09:23;15.00;99.90
11812;DHT22;5963;50.184;9.162;2023-08-06T00:11:54;14.90;99.90
11812;DHT22;5963;50.184;9.162;2023-08-06T00:14:24;14.90;99.90
11812;DHT22;5963;50.184;9.162;2023-08-06T00:16:54;14.80;99.90
11812;DHT22;5963;50.184;9.162;2023-08-06T00:19:24;14.80;99.90
11812;DHT22;5963;50.184;9.162;2023-08-06T00:21:53;14.80;99.90
11812;DHT22;5963;50.184;9.162;2023-08-06T00:24:23;14.80;99.90
11812;DHT22;5963;50.184;9.162;2023-08-06T00:26:53;14.80;99.90
11812;DHT22;5963;50.184;9.162;2023-08-06T00:29:25;14.70;99.90
11812;DHT22;5963;50.184;9.162;2023-08-06T00:31:55;14.80;99.90
11812;DHT22;5963;50.184;9.162;2023-08-06T00:34:25;14.80;99.90
11812;DHT22;5963;50.184;9.162;2023-08-06T00:36:55;14.80;99.90
11812;DHT22;5963;50.184;9.162;2023-08-06T00:39:25;14.80;99.90
11812;DHT22;5963;50.184;9.162;2023-08-06T00:41:55;14.80;99.90
11812;DHT22;5963;50.184;9.162;2023-08-06T00:44:28;14.80;99.90
11812;DHT22;5963;50.184;9.162;2023-08-06T00:46:58;14.80;99.90
11812;DHT22;5963;50.184;9.162;2023-08-06T00:49:28;14.80;99.90
11812;DHT22;5963;50.184;9.162;2023-08-06T00:52:02;14.90;99.90
11812;DHT22;5963;50.184;9.162;2023-08-06T00:54:33;14.90;99.90
11812;DHT22;5963;50.184;9.162;2023-08-06T00:57:04;14.90;99.90
11812;DHT22;5963;50.184;9.162;2023-08-06T00:59:37;14.90;99.90
11812;DHT22;5963;50.184;9.162;2023-08-06T01:02:08;14.80;99.90
11812;DHT22;5963;50.184;9.162;2023-08-06T01:04:38;14.90;99.90
11812;DHT22;5963;50.184;9.162;2023-08-06T01:07:16;14.80;99.90
11812;DHT22;5963;50.184;9.162;2023-08-06T01:09:54;14.80;99.90
11812;DHT22;5963;50.184;9.162;2023-08-06T01:12:34;14.90;99.90
11812;DHT22;5963;50.184;9.162;2023-08-06T01:15:14;14.90;99.90
11812;DHT22;5963;50.184;9.162;2023-08-06T01:17:46;14.90;99.90
11812;DHT22;5963;50.184;9.162;2023-08-06T01:20:16;14.80;99.90
11812;DHT22;5963;50.184;9.162;2023-08-06T01:22:46;14.80;99.90
11812;DHT22;5963;50.184;9.162;2023-08-06T01:25:17;14.80;99.90
11812;DHT22;5963;50.184;9.162;2023-08-06T01:27:49;14.80;99.90
11812;DHT22;5963;50.184;9.162;2023-08-06T01:30:22;14.80;99.90
11812;DHT22;5963;50.184;9.162;2023-08-06T01:33:00;14.80;99.90
11812;DHT22;5963;50.184;9.162;2023-08-06T01:35:33;14.80;99.90
11812;DHT22;5963;50.184;9.162;2023-08-06T01:38:05;14.70;99.90
11812;DHT22;5963;50.184;9.162;2023-08-06T01:40:36;14.80;99.90
11812;DHT22;5963;50.184;9.162;2023-08-06T01:43:06;14.70;99.90
11812;DHT22;5963;50.184;9.162;2023-08-06T01:45:36;14.70;99.90
11812;DHT22;5963;50.184;9.162;2023-08-06T01:48:06;14.60;99.90
11812;DHT22;5963;50.184;9.162;2023-08-06T01:50:37;14.60;99.90
11812;DHT22;5963;50.184;9.162;2023-08-06T01:53:11;14.50;99.90
11812;DHT22;5963;50.184;9.162;2023-08-06T01:55:41;14.50;99.90
11812;DHT22;5963;50.184;9.162;2023-08-06T01:58:11;14.50;99.90
11812;DHT22;5963;50.184;9.162;2023-08-06T02:00:43;14.50;99.90
11812;DHT22;5963;50.184;9.162;2023-08-06T02:03:13;14.50;99.90
11812;DHT22;5963;50.184;9.162;2023-08-06T02:05:43;14.50;99.90
11812;DHT22;5963;50.184;9.162;2023-08-06T02:08:15;14.60;99.90
11812;DHT22;5963;50.184;9.162;2023-08-06T02:10:46;14.60;99.90
11812;DHT22;5963;50.184;9.162;2023-08-06T02:13:16;14.60;99.90
11812;DHT22;5963;50.184;9.162;2023-08-06T02:15:47;14.60;99.90
11812;DHT22;5963;50.184;9.162;2023-08-06T02:18:16;14.60;99.90
11812;DHT22;5963;50.184;9.162;2023-08-06T02:20:54;14.60;99.90
11812;DHT22;5963;50.184;9.162;2023-08-06T02:23:26;14.70;99.90
11812;DHT22;5963;50.184;9.162;2023-08-06T02:25:58;14.60;99.90
11812;DHT22;5963;50.184;9.162;2023-08-06T02:28:29;14.60;99.90
11812;DHT22;5963;50.184;9.162;2023-08-06T02:30:58;14.70;99.90
11812;DHT22;5963;50.184;9.162;2023-08-06T02:33:29;14.70;99.90
11812;DHT22;5963;50.184;9.162;2023-08-06T02:36:02;14.70;99.90
11812;DHT22;5963;50.184;9.162;2023-08-06T02:38:33;14.60;99.90
11812;DHT22;5963;50.184;9.162;2023-08-06T02:41:05;14.60;99.90
11812;DHT22;5963;50.184;9.162;2023-08-06T02:43:34;14.70;99.90
11812;DHT22;5963;50.184;9.162;2023-08-06T02:46:05;14.70;99.90
11812;DHT22;5963;50.184;9.162;2023-08-06T02:48:35;14.70;99.90
11812;DHT22;5963;50.184;9.162;2023-08-06T02:51:05;14.70;99.90
11812;DHT22;5963;50.184;9.162;2023-08-06T02:53:38;14.70;99.90
11812;DHT22;5963;50.184;9.162;2023-08-06T02:56:09;14.60;99.90
11812;DHT22;5963;50.184;9.162;2023-08-06T02:58:39;14.70;99.90
11812;DHT22;5963;50.184;9.162;2023-08-06T03:01:09;14.70;99.90
11812;DHT22;5963;50.184;9.162;2023-08-06T03:03:43;14.70;99.90
11812;DHT22;5963;50.184;9.162;2023-08-06T03:06:13;14.70;99.90
11812;DHT22;5963;50.184;9.162;2023-08-06T03:08:43;14.70;99.90
11812;DHT22;5963;50.184;9.162;2023-08-06T03:11:13;14.70;99.90
11812;DHT22;5963;50.184;9.162;2023-08-06T03:13:43;14.70;99.90
11812;DHT22;5963;50.184;9.162;2023-08-06T03:16:14;14.80;99.90
11812;DHT22;5963;50.184;9.162;2023-08-06T03:18:46;14.80;99.90
11812;DHT22;5963;50.184;9.162;2023-08-06T03:21:16;14.80;99.90
11812;DHT22;5963;50.184;9.162;2023-08-06T03:23:50;14.70;99.90
11812;DHT22;5963;50.184;9.162;2023-08-06T03:26:19;14.70;99.90
11812;DHT22;5963;50.184;9.162;2023-08-06T03:28:49;14.70;99.90
11812;DHT22;5963;50.184;9.162;2023-08-06T03:31:19;14.60;99.90
11812;DHT22;5963;50.184;9.162;2023-08-06T03:33:49;14.50;99.90
11812;DHT22;5963;50.184;9.162;2023-08-06T03:36:21;14.50;99.90
11812;DHT22;5963;50.184;9.162;2023-08-06T03:38:52;14.50;99.90
11812;DHT22;5963;50.184;9.162;2023-08-06T03:41:22;14.40;99.90
11812;DHT22;5963;50.184;9.162;2023-08-06T03:43:52;14.40;99.90
11812;DHT22;5963;50.184;9.162;2023-08-06T03:46:22;14.30;99.90
11812;DHT22;5963;50.184;9.162;2023-08-06T03:48:52;14.30;99.90
11812;DHT22;5963;50.184;9.162;2023-08-06T03:51:22;14.30;99.90
11812;DHT22;5963;50.184;9.162;2023-08-06T03:53:52;14.30;99.90
11812;DHT22;5963;50.184;9.162;2023-08-06T03:56:22;14.30;99.90
11812;DHT22;5963;50.184;9.162;2023-08-06T03:58:52;14.40;99.90
11812;DHT22;5963;50.184;9.162;2023-08-06T04:01:23;14.40;99.90
11812;DHT22;5963;50.184;9.162;2023-08-06T04:03:53;14.40;99.90
11812;DHT22;5963;50.184;9.162;2023-08-06T04:06:23;14.30;99.90
11812;DHT22;5963;50.184;9.162;2023-08-06T04:08:55;14.30;99.90
11812;DHT22;5963;50.184;9.162;2023-08-06T04:11:25;14.30;99.90
11812;DHT22;5963;50.184;9.162;2023-08-06T04:13:55;14.30;99.90
11812;DHT22;5963;50.184;9.162;2023-08-06T04:16:25;14.30;99.90
11812;DHT22;5963;50.184;9.162;2023-08-06T04:18:56;14.20;99.90
11812;DHT22;5963;50.184;9.162;2023-08-06T04:21:27;14.20;99.90
11812;DHT22;5963;50.184;9.162;2023-08-06T04:23:59;14.30;99.90
11812;DHT22;5963;50.184;9.162;2023-08-06T04:26:30;14.20;99.90
11812;DHT22;5963;50.184;9.162;2023-08-06T04:29:00;14.30;99.90
11812;DHT22;5963;50.184;9.162;2023-08-06T04:31:30;14.30;99.90
11812;DHT22;5963;50.184;9.162;2023-08-06T04:34:03;14.30;99.90
11812;DHT22;5963;50.184;9.162;2023-08-06T04:36:34;14.40;99.90
11812;DHT22;5963;50.184;9.162;2023-08-06T04:39:06;14.40;99.90
11812;DHT22;5963;50.184;9.162;2023-08-06T04:41:36;14.40;99.90
11812;DHT22;5963;50.184;9.162;2023-08-06T04:44:06;14.50;99.90
11812;DHT22;5963;50.184;9.162;2023-08-06T04:46:36;14.50;99.90
11812;DHT22;5963;50.184;9.162;2023-08-06T04:49:07;14.60;99.90
11812;DHT22;5963;50.184;9.162;2023-08-06T04:51:37;14.60;99.90
11812;DHT22;5963;50.184;9.162;2023-08-06T04:54:09;14.70;99.90
11812;DHT22;5963;50.184;9.162;2023-08-06T04:56:39;14.80;99.90
11812;DHT22;5963;50.184;9.162;2023-08-06T04:59:09;14.80;99.90
11812;DHT22;5963;50.184;9.162;2023-08-06T05:01:39;14.70;99.90
11812;DHT22;5963;50.184;9.162;2023-08-06T05:04:09;14.80;99.90
11812;DHT22;5963;50.184;9.162;2023-08-06T05:06:39;14.80;99.90
11812;DHT22;5963;50.184;9.162;2023-08-06T05:09:11;14.90;99.90
11812;DHT22;5963;50.184;9.162;2023-08-06T05:11:41;15.10;99.90
11812;DHT22;5963;50.184;9.162;2023-08-06T05:14:11;15.60;99.90
11812;DHT22;5963;50.184;9.162;2023-08-06T05:16:41;15.90;99.90
11812;DHT22;5963;50.184;9.162;2023-08-06T05:19:11;16.00;99.90
11812;DHT22;5963;50.184;9.162;2023-08-06T05:21:42;16.10;99.90
11812;DHT22;5963;50.184;9.162;2023-08-06T05:24:11;15.90;99.90
11812;DHT22;5963;50.184;9.162;2023-08-06T05:26:41;15.70;99.90
11812;DHT22;5963;50.184;9.162;2023-08-06T05:29:16;15.50;99.90
11812;DHT22;5963;50.184;9.162;2023-08-06T05:31:45;15.40;99.90
11812;DHT22;5963;50.184;9.162;2023-08-06T05:34:15;15.40;99.90
11812;DHT22;5963;50.184;9.162;2023-08-06T05:36:45;15.30;99.90
11812;DHT22;5963;50.184;9.162;2023-08-06T05:39:16;15.00;99.90
11812;DHT22;5963;50.184;9.162;2023-08-06T05:41:46;14.80;99.90
11812;DHT22;5963;50.184;9.162;2023-08-06T05:44:16;14.70;99.90
11812;DHT22;5963;50.184;9.162;2023-08-06T05:46:48;14.60;99.90
11812;DHT22;5963;50.184;9.162;2023-08-06T05:49:19;14.60;99.90
11812;DHT22;5963;50.184;9.162;2023-08-06T05:51:49;14.50;99.90
11812;DHT22;5963;50.184;9.162;2023-08-06T05:54:23;14.40;99.90
11812;DHT22;5963;50.184;9.162;2023-08-06T05:56:55;14.40;99.90
11812;DHT22;5963;50.184;9.162;2023-08-06T05:59:26;14.40;99.90
11812;DHT22;5963;50.184;9.162;2023-08-06T06:01:56;14.40;99.90
11812;DHT22;5963;50.184;9.162;2023-08-06T06:04:27;14.40;99.90
11812;DHT22;5963;50.184;9.162;2023-08-06T06:06:58;14.50;99.90
11812;DHT22;5963;50.184;9.162;2023-08-06T06:09:29;14.40;99.90
11812;DHT22;5963;50.184;9.162;2023-08-06T06:11:59;14.40;99.90
11812;DHT22;5963;50.184;9.162;2023-08-06T06:14:31;14.40;99.90
11812;DHT22;5963;50.184;9.162;2023-08-06T06:17:01;14.40;99.90
11812;DHT22;5963;50.184;9.162;2023-08-06T06:19:31;14.40;99.90
11812;DHT22;5963;50.184;9.162;2023-08-06T06:22:01;14.50;99.90
11812;DHT22;5963;50.184;9.162;2023-08-06T06:24:33;14.40;99.90
11812;DHT22;5963;50.184;9.162;2023-08-06T06:27:03;14.40;99.90
11812;DHT22;5963;50.184;9.162;2023-08-06T06:29:33;14.40;99.90
11812;DHT22;5963;50.184;9.162;2023-08-06T06:32:03;14.40;99.90
11812;DHT22;5963;50.184;9.162;2023-08-06T06:34:33;14.50;99.90
11812;DHT22;5963;50.184;9.162;2023-08-06T06:37:04;14.60;99.90
11812;DHT22;5963;50.184;9.162;2023-08-06T06:39:36;14.50;99.90
11812;DHT22;5963;50.184;9.162;2023-08-06T06:42:06;14.50;99.90
11812;DHT22;5963;50.184;9.162;2023-08-06T06:44:36;14.60;99.90
11812;DHT22;5963;50.184;9.162;2023-08-06T06:47:05;14.50;99.90
11812;DHT22;5963;50.184;9.162;2023-08-06T06:49:35;14.40;99.90
11812;DHT22;5963;50.184;9.162;2023-08-06T06:52:04;14.40;99.90
11812;DHT22;5963;50.184;9.162;2023-08-06T06:54:35;14.40;99.90
11812;DHT22;5963;50.184;9.162;2023-08-06T06:57:07;14.50;99.90
11812;DHT22;5963;50.184;9.162;2023-08-06T06:59:37;14.40;99.90
11812;DHT22;5963;50.184;9.162;2023-08-06T07:02:08;14.50;99.90
11812;DHT22;5963;50.184;9.162;2023-08-06T07:04:39;14.50;99.90
11812;DHT22;5963;50.184;9.162;2023-08-06T07:07:09;14.50;99.90
11812;DHT22;5963;50.184;9.162;2023-08-06T07:09:41;14.50;99.90
11812;DHT22;5963;50.184;9.162;2023-08-06T07:12:11;14.60;99.90
11812;DHT22;5963;50.184;9.162;2023-08-06T07:14:42;14.60;99.90
11812;DHT22;5963;50.184;9.162;2023-08-06T07:17:12;14.60;99.90
11812;DHT22;5963;50.184;9.162;2023-08-06T07:19:43;14.80;99.90
11812;DHT22;5963;50.184;9.162;2023-08-06T07:22:12;14.90;99.90
11812;DHT22;5963;50.184;9.162;2023-08-06T07:24:44;14.90;99.90
11812;DHT22;5963;50.184;9.162;2023-08-06T07:27:14;14.90;99.90
11812;DHT22;5963;50.184;9.162;2023-08-06T07:29:44;14.90;99.90
11812;DHT22;5963;50.184;9.162;2023-08-06T07:32:12;14.90;99.90
11812;DHT22;5963;50.184;9.162;2023-08-06T07:34:42;14.90;99.90
11812;DHT22;5963;50.184;9.162;2023-08-06T07:37:10;14.90;99.90
11812;DHT22;5963;50.184;9.162;2023-08-06T07:39:40;14.80;99.90
11812;DHT22;5963;50.184;9.162;2023-08-06T07:42:13;14.70;99.90
11812;DHT22;5963;50.184;9.162;2023-08-06T07:44:45;14.70;99.90
11812;DHT22;5963;50.184;9.162;2023-08-06T07:47:22;14.70;99.90
11812;DHT22;5963;50.184;9.162;2023-08-06T07:49:52;14.60;99.90
11812;DHT22;5963;50.184;9.162;2023-08-06T07:52:21;14.50;99.90
11812;DHT22;5963;50.184;9.162;2023-08-06T07:54:51;14.50;99.90
11812;DHT22;5963;50.184;9.162;2023-08-06T07:57:22;14.60;99.90
11812;DHT22;5963;50.184;9.162;2023-08-06T07:59:53;14.60;99.90
11812;DHT22;5963;50.184;9.162;2023-08-06T08:02:23;14.70;99.90
11812;DHT22;5963;50.184;9.162;2023-08-06T08:04:53;14.70;99.90
11812;DHT22;5963;50.184;9.162;2023-08-06T08:07:24;14.70;99.90
11812;DHT22;5963;50.184;9.162;2023-08-06T08:09:54;14.80;99.90
11812;DHT22;5963;50.184;9.162;2023-08-06T08:12:26;14.80;99.90
11812;DHT22;5963;50.184;9.162;2023-08-06T08:14:56;14.70;99.90
11812;DHT22;5963;50.184;9.162;2023-08-06T08:17:27;14.70;99.90
11812;DHT22;5963;50.184;9.162;2023-08-06T08:19:58;14.80;99.90
11812;DHT22;5963;50.184;9.162;2023-08-06T08:22:28;14.80;99.90
11812;DHT22;5963;50.184;9.162;2023-08-06T08:24:56;14.90;99.90
11812;DHT22;5963;50.184;9.162;2023-08-06T08:27:28;15.10;99.90
11812;DHT22;5963;50.184;9.162;2023-08-06T08:29:58;15.30;99.90
11812;DHT22;5963;50.184;9.162;2023-08-06T08:32:27;15.30;99.90
11812;DHT22;5963;50.184;9.162;2023-08-06T08:34:57;15.20;99.90
11812;DHT22;5963;50.184;9.162;2023-08-06T08:37:27;15.40;99.90
11812;DHT22;5963;50.184;9.162;2023-08-06T08:39:58;15.70;99.90
11812;DHT22;5963;50.184;9.162;2023-08-06T08:42:33;15.90;99.90
11812;DHT22;5963;50.184;9.162;2023-08-06T08:45:04;15.70;99.90
11812;DHT22;5963;50.184;9.162;2023-08-06T08:47:34;15.70;99.90
11812;DHT22;5963;50.184;9.162;2023-08-06T08:50:08;15.70;99.90
11812;DHT22;5963;50.184;9.162;2023-08-06T08:52:40;15.50;99.90
11812;DHT22;5963;50.184;9.162;2023-08-06T08:55:11;15.70;99.90
11812;DHT22;5963;50.184;9.162;2023-08-06T08:57:44;15.80;99.90
11812;DHT22;5963;50.184;9.162;2023-08-06T09:00:15;15.70;99.90
11812;DHT22;5963;50.184;9.162;2023-08-06T09:02:46;15.80;99.90
11812;DHT22;5963;50.184;9.162;2023-08-06T09:05:17;15.60;99.90
11812;DHT22;5963;50.184;9.162;2023-08-06T09:07:50;15.60;99.90
11812;DHT22;5963;50.184;9.162;2023-08-06T09:10:22;15.70;99.90
11812;DHT22;5963;50.184;9.162;2023-08-06T09:12:57;15.50;99.90
11812;DHT22;5963;50.184;9.162;2023-08-06T09:15:30;15.40;99.90
11812;DHT22;5963;50.184;9.162;2023-08-06T09:18:04;15.40;99.90
11812;DHT22;5963;50.184;9.162;2023-08-06T09:20:39;15.40;99.90
11812;DHT22;5963;50.184;9.162;2023-08-06T09:23:10;15.60;99.90
11812;DHT22;5963;50.184;9.162;2023-08-06T09:25:42;15.60;99.90
11812;DHT22;5963;50.184;9.162;2023-08-06T09:28:12;15.80;99.90
11812;DHT22;5963;50.184;9.162;2023-08-06T09:30:42;15.90;99.90
11812;DHT22;5963;50.184;9.162;2023-08-06T09:33:14;15.90;99.90
11812;DHT22;5963;50.184;9.162;2023-08-06T09:35:48;15.90;99.90
11812;DHT22;5963;50.184;9.162;2023-08-06T09:38:18;15.90;99.90
11812;DHT22;5963;50.184;9.162;2023-08-06T09:40:49;15.90;99.90
11812;DHT22;5963;50.184;9.162;2023-08-06T09:43:22;16.10;99.90
11812;DHT22;5963;50.184;9.162;2023-08-06T09:45:51;16.20;99.90
11812;DHT22;5963;50.184;9.162;2023-08-06T09:48:26;16.20;99.90
11812;DHT22;5963;50.184;9.162;2023-08-06T09:50:57;16.50;99.90
11812;DHT22;5963;50.184;9.162;2023-08-06T09:53:27;16.90;99.90
11812;DHT22;5963;50.184;9.162;2023-08-06T09:55:58;17.10;99.90
11812;DHT22;5963;50.184;9.162;2023-08-06T09:58:30;17.30;99.90
11812;DHT22;5963;50.184;9.162;2023-08-06T10:00:59;17.50;99.90
11812;DHT22;5963;50.184;9.162;2023-08-06T10:03:32;17.70;99.90
11812;DHT22;5963;50.184;9.162;2023-08-06T10:06:03;17.60;99.90
11812;DHT22;5963;50.184;9.162;2023-08-06T10:08:35;17.70;99.90
11812;DHT22;5963;50.184;9.162;2023-08-06T10:11:06;17.90;99.90
11812;DHT22;5963;50.184;9.162;2023-08-06T10:13:39;17.70;99.90
11812;DHT22;5963;50.184;9.162;2023-08-06T10:16:09;17.60;99.90
11812;DHT22;5963;50.184;9.162;2023-08-06T10:18:40;17.60;99.90
11812;DHT22;5963;50.184;9.162;2023-08-06T10:21:12;17.90;99.90
11812;DHT22;5963;50.184;9.162;2023-08-06T10:23:41;17.70;99.90
11812;DHT22;5963;50.184;9.162;2023-08-06T10:26:11;17.80;99.90
11812;DHT22;5963;50.184;9.162;2023-08-06T10:28:44;18.00;99.90
11812;DHT22;5963;50.184;9.162;2023-08-06T10:31:14;17.60;99.90
11812;DHT22;5963;50.184;9.162;2023-08-06T10:33:47;17.30;99.90
11812;DHT22;5963;50.184;9.162;2023-08-06T10:36:19;17.10;99.90
11812;DHT22;5963;50.184;9.162;2023-08-06T10:38:51;16.70;99.90
11812;DHT22;5963;50.184;9.162;2023-08-06T10:41:27;16.30;99.90
11812;DHT22;5963;50.184;9.162;2023-08-06T10:44:07;15.80;99.90
11812;DHT22;5963;50.184;9.162;2023-08-06T10:46:38;15.40;99.90
11812;DHT22;5963;50.184;9.162;2023-08-06T10:49:08;15.20;99.90
11812;DHT22;5963;50.184;9.162;2023-08-06T10:51:41;15.00;99.90
11812;DHT22;5963;50.184;9.162;2023-08-06T10:54:11;14.90;99.90
11812;DHT22;5963;50.184;9.162;2023-08-06T10:56:43;14.70;99.90
11812;DHT22;5963;50.184;9.162;2023-08-06T10:59:17;14.80;99.90
11812;DHT22;5963;50.184;9.162;2023-08-06T11:01:48;14.80;99.90
11812;DHT22;5963;50.184;9.162;2023-08-06T11:04:20;14.80;99.90
11812;DHT22;5963;50.184;9.162;2023-08-06T11:06:55;14.80;99.90
11812;DHT22;5963;50.184;9.162;2023-08-06T11:09:25;14.80;99.90
11812;DHT22;5963;50.184;9.162;2023-08-06T11:11:56;14.80;99.90
11812;DHT22;5963;50.184;9.162;2023-08-06T11:14:30;14.90;99.90
11812;DHT22;5963;50.184;9.162;2023-08-06T11:16:59;14.90;99.90
11812;DHT22;5963;50.184;9.162;2023-08-06T11:19:29;14.90;99.90
11812;DHT22;5963;50.184;9.162;2023-08-06T11:22:02;14.80;99.90
11812;DHT22;5963;50.184;9.162;2023-08-06T11:24:33;14.90;99.90
11812;DHT22;5963;50.184;9.162;2023-08-06T11:27:05;14.90;99.90
11812;DHT22;5963;50.184;9.162;2023-08-06T11:29:43;14.80;99.90
11812;DHT22;5963;50.184;9.162;2023-08-06T11:32:17;14.90;99.90
11812;DHT22;5963;50.184;9.162;2023-08-06T11:34:48;15.00;99.90
11812;DHT22;5963;50.184;9.162;2023-08-06T11:37:18;15.10;99.90
11812;DHT22;5963;50.184;9.162;2023-08-06T11:39:51;15.10;99.90
11812;DHT22;5963;50.184;9.162;2023-08-06T11:42:24;15.30;99.90
11812;DHT22;5963;50.184;9.162;2023-08-06T11:45:00;15.70;99.90
11812;DHT22;5963;50.184;9.162;2023-08-06T11:47:33;16.10;99.90
11812;DHT22;5963;50.184;9.162;2023-08-06T11:50:04;16.50;99.90
11812;DHT22;5963;50.184;9.162;2023-08-06T11:52:38;16.80;99.90
11812;DHT22;5963;50.184;9.162;2023-08-06T11:55:10;17.00;99.90
11812;DHT22;5963;50.184;9.162;2023-08-06T11:57:46;16.90;99.90
11812;DHT22;5963;50.184;9.162;2023-08-06T12:00:19;17.10;99.90
11812;DHT22;5963;50.184;9.162;2023-08-06T12:02:52;17.40;99.90
11812;DHT22;5963;50.184;9.162;2023-08-06T12:05:32;17.60;99.90
11812;DHT22;5963;50.184;9.162;2023-08-06T12:08:04;17.70;99.90
11812;DHT22;5963;50.184;9.162;2023-08-06T12:10:36;17.60;99.90
11812;DHT22;5963;50.184;9.162;2023-08-06T12:13:08;17.50;99.90
11812;DHT22;5963;50.184;9.162;2023-08-06T12:15:40;17.90;99.90
11812;DHT22;5963;50.184;9.162;2023-08-06T12:18:10;18.40;99.90
11812;DHT22;5963;50.184;9.162;2023-08-06T12:20:40;18.80;99.90
11812;DHT22;5963;50.184;9.162;2023-08-06T12:23:10;18.70;99.90
11812;DHT22;5963;50.184;9.162;2023-08-06T12:25:44;18.70;99.90
11812;DHT22;5963;50.184;9.162;2023-08-06T12:28:15;19.00;99.90
11812;DHT22;5963;50.184;9.162;2023-08-06T12:30:47;19.20;99.90
11812;DHT22;5963;50.184;9.162;2023-08-06T12:33:18;18.70;99.90
11812;DHT22;5963;50.184;9.162;2023-08-06T12:35:48;18.40;99.90
11812;DHT22;5963;50.184;9.162;2023-08-06T12:38:19;18.40;99.90
11812;DHT22;5963;50.184;9.162;2023-08-06T12:40:49;18.40;99.90
11812;DHT22;5963;50.184;9.162;2023-08-06T12:43:17;17.80;99.90
11812;DHT22;5963;50.184;9.162;2023-08-06T12:45:48;17.30;99.90
11812;DHT22;5963;50.184;9.162;2023-08-06T12:48:19;16.60;99.90
11812;DHT22;5963;50.184;9.162;2023-08-06T12:50:50;16.50;99.90
11812;DHT22;5963;50.184;9.162;2023-08-06T12:53:21;16.30;99.90
11812;DHT22;5963;50.184;9.162;2023-08-06T12:55:52;16.10;99.90
11812;DHT22;5963;50.184;9.162;2023-08-06T12:58:22;16.00;99.90
11812;DHT22;5963;50.184;9.162;2023-08-06T13:00:53;16.00;99.90
11812;DHT22;5963;50.184;9.162;2023-08-06T13:03:23;16.00;99.90
11812;DHT22;5963;50.184;9.162;2023-08-06T13:05:55;16.10;99.90
11812;DHT22;5963;50.184;9.162;2023-08-06T13:08:26;16.20;99.90
11812;DHT22;5963;50.184;9.162;2023-08-06T13:10:58;16.30;99.90
11812;DHT22;5963;50.184;9.162;2023-08-06T13:13:28;16.30;99.90
11812;DHT22;5963;50.184;9.162;2023-08-06T13:16:00;16.30;99.90
11812;DHT22;5963;50.184;9.162;2023-08-06T13:18:29;16.10;99.90
11812;DHT22;5963;50.184;9.162;2023-08-06T13:20:59;15.90;99.90
11812;DHT22;5963;50.184;9.162;2023-08-06T13:23:30;15.60;99.90
11812;DHT22;5963;50.184;9.162;2023-08-06T13:26:01;15.50;99.90
11812;DHT22;5963;50.184;9.162;2023-08-06T13:28:31;15.50;99.90
11812;DHT22;5963;50.184;9.162;2023-08-06T13:31:04;15.40;99.90
11812;DHT22;5963;50.184;9.162;2023-08-06T13:33:34;15.40;99.90
11812;DHT22;5963;50.184;9.162;2023-08-06T13:36:05;15.30;99.90
11812;DHT22;5963;50.184;9.162;2023-08-06T13:38:35;15.40;99.90
11812;DHT22;5963;50.184;9.162;2023-08-06T13:41:05;15.30;99.90
11812;DHT22;5963;50.184;9.162;2023-08-06T13:43:36;15.30;99.90
11812;DHT22;5963;50.184;9.162;2023-08-06T13:46:08;15.10;99.90
11812;DHT22;5963;50.184;9.162;2023-08-06T13:48:46;15.00;99.90
11812;DHT22;5963;50.184;9.162;2023-08-06T13:51:16;15.00;99.90
11812;DHT22;5963;50.184;9.162;2023-08-06T13:53:47;14.90;99.90
11812;DHT22;5963;50.184;9.162;2023-08-06T13:56:17;14.90;99.90
11812;DHT22;5963;50.184;9.162;2023-08-06T13:58:47;14.80;99.90
11812;DHT22;5963;50.184;9.162;2023-08-06T14:01:20;14.80;99.90
11812;DHT22;5963;50.184;9.162;2023-08-06T14:04:00;14.80;99.90
11812;DHT22;5963;50.184;9.162;2023-08-06T14:06:30;14.80;99.90
11812;DHT22;5963;50.184;9.162;2023-08-06T14:09:01;14.60;99.90
11812;DHT22;5963;50.184;9.162;2023-08-06T14:11:31;14.60;99.90
11812;DHT22;5963;50.184;9.162;2023-08-06T14:14:03;14.70;99.90
11812;DHT22;5963;50.184;9.162;2023-08-06T14:16:33;14.70;99.90
11812;DHT22;5963;50.184;9.162;2023-08-06T14:19:05;14.80;99.90
11812;DHT22;5963;50.184;9.162;2023-08-06T14:21:35;14.70;99.90
11812;DHT22;5963;50.184;9.162;2023-08-06T14:24:07;14.60;99.90
11812;DHT22;5963;50.184;9.162;2023-08-06T14:26:38;14.50;99.90
11812;DHT22;5963;50.184;9.162;2023-08-06T14:29:12;14.40;99.90
11812;DHT22;5963;50.184;9.162;2023-08-06T14:31:42;14.40;99.90
11812;DHT22;5963;50.184;9.162;2023-08-06T14:34:13;14.50;99.90
11812;DHT22;5963;50.184;9.162;2023-08-06T14:36:43;14.50;99.90
11812;DHT22;5963;50.184;9.162;2023-08-06T14:39:13;14.30;99.90
11812;DHT22;5963;50.184;9.162;2023-08-06T14:41:43;14.20;99.90
11812;DHT22;5963;50.184;9.162;2023-08-06T14:44:13;14.20;99.90
11812;DHT22;5963;50.184;9.162;2023-08-06T14:46:45;14.30;99.90
11812;DHT22;5963;50.184;9.162;2023-08-06T14:49:15;14.30;99.90
11812;DHT22;5963;50.184;9.162;2023-08-06T14:51:46;14.40;99.90
11812;DHT22;5963;50.184;9.162;2023-08-06T14:54:15;14.40;99.90
11812;DHT22;5963;50.184;9.162;2023-08-06T14:56:47;14.40;99.90
11812;DHT22;5963;50.184;9.162;2023-08-06T14:59:19;14.30;99.90
11812;DHT22;5963;50.184;9.162;2023-08-06T15:01:51;14.30;99.90
11812;DHT22;5963;50.184;9.162;2023-08-06T15:04:24;14.20;99.90
11812;DHT22;5963;50.184;9.162;2023-08-06T15:06:56;14.20;99.90
11812;DHT22;5963;50.184;9.162;2023-08-06T15:09:26;14.20;99.90
11812;DHT22;5963;50.184;9.162;2023-08-06T15:11:57;14.20;99.90
11812;DHT22;5963;50.184;9.162;2023-08-06T15:14:25;14.10;99.90
11812;DHT22;5963;50.184;9.162;2023-08-06T15:17:00;14.20;99.90
11812;DHT22;5963;50.184;9.162;2023-08-06T15:19:30;14.20;99.90
11812;DHT22;5963;50.184;9.162;2023-08-06T15:22:00;14.30;99.90
11812;DHT22;5963;50.184;9.162;2023-08-06T15:24:29;14.30;99.90
11812;DHT22;5963;50.184;9.162;2023-08-06T15:26:59;14.20;99.90
11812;DHT22;5963;50.184;9.162;2023-08-06T15:29:33;14.40;99.90
11812;DHT22;5963;50.184;9.162;2023-08-06T15:32:07;14.50;99.90
11812;DHT22;5963;50.184;9.162;2023-08-06T15:34:37;14.40;99.90
11812;DHT22;5963;50.184;9.162;2023-08-06T15:37:09;14.50;99.90
11812;DHT22;5963;50.184;9.162;2023-08-06T15:39:40;14.50;99.90
11812;DHT22;5963;50.184;9.162;2023-08-06T15:42:08;14.50;99.90
11812;DHT22;5963;50.184;9.162;2023-08-06T15:44:39;14.30;99.90
11812;DHT22;5963;50.184;9.162;2023-08-06T15:47:11;14.30;99.90
11812;DHT22;5963;50.184;9.162;2023-08-06T15:49:42;14.30;99.90
11812;DHT22;5963;50.184;9.162;2023-08-06T15:52:13;14.50;99.90
11812;DHT22;5963;50.184;9.162;2023-08-06T15:54:43;14.40;99.90
11812;DHT22;5963;50.184;9.162;2023-08-06T15:57:14;14.40;99.90
11812;DHT22;5963;50.184;9.162;2023-08-06T15:59:44;14.50;99.90
11812;DHT22;5963;50.184;9.162;2023-08-06T16:02:18;14.40;99.90
11812;DHT22;5963;50.184;9.162;2023-08-06T16:04:48;14.30;99.90
11812;DHT22;5963;50.184;9.162;2023-08-06T16:07:19;14.40;99.90
11812;DHT22;5963;50.184;9.162;2023-08-06T16:09:52;14.50;99.90